sensor_id;sensor_type;location;lat;lon;timestamp;temperature;humidity
5828;DHT22;42583;50.240;8.444;2023-03-01T00:07:15;-2.10;55.40
5828;DHT22;42583;50.240;8.444;2023-03-01T00:22:15;-2.00;59.50
5828;DHT22;42583;50.240;8.444;2023-03-01T00:37:16;-1.90;61.60
5828;DHT22;42583;50.240;8.444;2023-03-01T00:52:17;-1.80;63.10
5828;DHT22;42583;50.240;8.444;2023-03-01T01:07:18;-1.70;63.50
5828;DHT22;42583;50.240;8.444;2023-03-01T01:22:20;-1.80;64.50
5828;DHT22;42583;50.240;8.444;2023-03-01T01:37:21;-1.80;67.90
5828;DHT22;42583;50.240;8.444;2023-03-01T01:52:30;-1.60;67.00
5828;DHT22;42583;50.240;8.444;2023-03-01T02:07:32;-1.60;67.50
5828;DHT22;42583;50.240;8.444;2023-03-01T02:22:35;-1.60;65.60
5828;DHT22;42583;50.240;8.444;2023-03-01T02:37:36;-1.70;68.40
5828;DHT22;42583;50.240;8.444;2023-03-01T02:52:48;-1.80;68.80
5828;DHT22;42583;50.240;8.444;2023-03-01T03:07:52;-2.00;71.70
5828;DHT22;42583;50.240;8.444;2023-03-01T03:22:55;-2.00;73.70
5828;DHT22;42583;50.240;8.444;2023-03-01T03:37:57;-2.10;73.50
5828;DHT22;42583;50.240;8.444;2023-03-01T03:53:09;-2.30;74.70
5828;DHT22;42583;50.240;8.444;2023-03-01T04:08:10;-2.40;78.70
5828;DHT22;42583;50.240;8.444;2023-03-01T04:23:16;-2.50;81.70
5828;DHT22;42583;50.240;8.444;2023-03-01T04:38:20;-2.60;85.10
5828;DHT22;42583;50.240;8.444;2023-03-01T04:53:21;-2.80;88.20
5828;DHT22;42583;50.240;8.444;2023-03-01T05:08:22;-2.90;89.10
5828;DHT22;42583;50.240;8.444;2023-03-01T05:23:23;-2.90;90.10
5828;DHT22;42583;50.240;8.444;2023-03-01T05:38:23;-2.80;89.50
5828;DHT22;42583;50.240;8.444;2023-03-01T05:53:27;-2.80;91.30
5828;DHT22;42583;50.240;8.444;2023-03-01T06:08:27;-2.90;91.60
5828;DHT22;42583;50.240;8.444;2023-03-01T06:23:28;-2.90;92.20
5828;DHT22;42583;50.240;8.444;2023-03-01T06:38:29;-2.70;92.10
5828;DHT22;42583;50.240;8.444;2023-03-01T06:53:29;-2.60;92.00
5828;DHT22;42583;50.240;8.444;2023-03-01T07:08:31;-2.50;91.90
5828;DHT22;42583;50.240;8.444;2023-03-01T07:23:31;-2.40;91.60
5828;DHT22;42583;50.240;8.444;2023-03-01T07:38:40;-1.70;91.80
5828;DHT22;42583;50.240;8.444;2023-03-01T07:53:40;0.00;86.80
5828;DHT22;42583;50.240;8.444;2023-03-01T08:08:41;1.00;81.00
5828;DHT22;42583;50.240;8.444;2023-03-01T08:23:42;1.30;75.70
5828;DHT22;42583;50.240;8.444;2023-03-01T08:38:43;1.70;74.60
5828;DHT22;42583;50.240;8.444;2023-03-01T08:53:45;2.40;70.70
5828;DHT22;42583;50.240;8.444;2023-03-01T09:08:49;3.50;68.30
5828;DHT22;42583;50.240;8.444;2023-03-01T09:23:50;4.10;64.30
5828;DHT22;42583;50.240;8.444;2023-03-01T09:38:51;4.60;60.70
5828;DHT22;42583;50.240;8.444;2023-03-01T09:53:53;5.50;57.60
5828;DHT22;42583;50.240;8.444;2023-03-01T10:09:05;6.50;55.50
5828;DHT22;42583;50.240;8.444;2023-03-01T10:24:14;7.90;52.30
5828;DHT22;42583;50.240;8.444;2023-03-01T10:39:20;9.20;49.40
5828;DHT22;42583;50.240;8.444;2023-03-01T10:54:31;10.40;43.50
5828;DHT22;42583;50.240;8.444;2023-03-01T11:09:33;11.10;42.60
5828;DHT22;42583;50.240;8.444;2023-03-01T11:24:41;12.10;39.70
5828;DHT22;42583;50.240;8.444;2023-03-01T11:40:16;13.00;37.80
5828;DHT22;42583;50.240;8.444;2023-03-01T11:55:39;14.00;34.00
5828;DHT22;42583;50.240;8.444;2023-03-01T12:11:10;15.50;34.60
5828;DHT22;42583;50.240;8.444;2023-03-01T12:26:29;16.40;29.70
5828;DHT22;42583;50.240;8.444;2023-03-01T12:41:53;17.20;30.50
5828;DHT22;42583;50.240;8.444;2023-03-01T13:12:44;19.80;27.70
5828;DHT22;42583;50.240;8.444;2023-03-01T13:27:49;19.30;26.00
5828;DHT22;42583;50.240;8.444;2023-03-01T13:42:54;18.90;26.10
5828;DHT22;42583;50.240;8.444;2023-03-01T13:58:00;20.00;27.10
5828;DHT22;42583;50.240;8.444;2023-03-01T14:14:05;20.90;25.80
5828;DHT22;42583;50.240;8.444;2023-03-01T14:28:45;21.10;24.80
5828;DHT22;42583;50.240;8.444;2023-03-01T14:43:51;21.80;24.10
5828;DHT22;42583;50.240;8.444;2023-03-01T14:58:53;21.00;23.30
5828;DHT22;42583;50.240;8.444;2023-03-01T15:13:59;20.90;23.60
5828;DHT22;42583;50.240;8.444;2023-03-01T15:29:00;19.00;24.10
5828;DHT22;42583;50.240;8.444;2023-03-01T15:44:15;19.00;24.50
5828;DHT22;42583;50.240;8.444;2023-03-01T15:59:16;16.60;25.10
5828;DHT22;42583;50.240;8.444;2023-03-01T16:14:18;15.00;25.70
5828;DHT22;42583;50.240;8.444;2023-03-01T16:29:18;14.30;25.50
5828;DHT22;42583;50.240;8.444;2023-03-01T16:44:19;9.90;28.10
5828;DHT22;42583;50.240;8.444;2023-03-01T16:59:19;6.90;31.00
5828;DHT22;42583;50.240;8.444;2023-03-01T17:14:20;5.40;32.90
5828;DHT22;42583;50.240;8.444;2023-03-01T17:29:21;4.40;35.20
5828;DHT22;42583;50.240;8.444;2023-03-01T17:44:22;3.80;36.00
5828;DHT22;42583;50.240;8.444;2023-03-01T17:59:23;3.20;37.50
5828;DHT22;42583;50.240;8.444;2023-03-01T18:14:23;2.80;37.90
5828;DHT22;42583;50.240;8.444;2023-03-01T18:29:26;2.50;38.90
5828;DHT22;42583;50.240;8.444;2023-03-01T18:44:27;2.20;39.40
5828;DHT22;42583;50.240;8.444;2023-03-01T18:59:28;1.90;40.70
5828;DHT22;42583;50.240;8.444;2023-03-01T19:14:29;1.70;42.30
5828;DHT22;42583;50.240;8.444;2023-03-01T19:29:29;1.50;43.20
5828;DHT22;42583;50.240;8.444;2023-03-01T19:44:30;1.30;44.60
5828;DHT22;42583;50.240;8.444;2023-03-01T19:59:31;1.10;45.60
5828;DHT22;42583;50.240;8.444;2023-03-01T20:14:31;1.00;46.20
5828;DHT22;42583;50.240;8.444;2023-03-01T20:29:32;0.80;46.30
5828;DHT22;42583;50.240;8.444;2023-03-01T20:44:33;0.80;47.10
5828;DHT22;42583;50.240;8.444;2023-03-01T20:59:34;0.70;47.20
5828;DHT22;42583;50.240;8.444;2023-03-01T21:14:34;0.50;47.70
5828;DHT22;42583;50.240;8.444;2023-03-01T21:29:43;0.60;48.00
5828;DHT22;42583;50.240;8.444;2023-03-01T21:44:44;0.80;48.40
5828;DHT22;42583;50.240;8.444;2023-03-01T21:59:44;0.90;48.70
5828;DHT22;42583;50.240;8.444;2023-03-01T22:14:45;0.80;49.70
5828;DHT22;42583;50.240;8.444;2023-03-01T22:29:46;0.80;50.50
5828;DHT22;42583;50.240;8.444;2023-03-01T22:44:46;0.90;51.40
5828;DHT22;42583;50.240;8.444;2023-03-01T22:59:47;1.00;51.80
5828;DHT22;42583;50.240;8.444;2023-03-01T23:14:47;1.00;52.40
5828;DHT22;42583;50.240;8.444;2023-03-01T23:29:50;1.10;53.40
5828;DHT22;42583;50.240;8.444;2023-03-01T23:44:51;1.10;54.40
5828;DHT22;42583;50.240;8.444;2023-03-01T23:59:52;1.10;55.70
